EST,Max TemperatureF,Mean TemperatureF,Min TemperatureF,Max Dew PointF,MeanDew PointF,Min DewpointF,Max Humidity, Mean Humidity, Min Humidity, Max Sea Level PressureIn, Mean Sea Level PressureIn, Min Sea Level PressureIn, Max VisibilityMiles, Mean VisibilityMiles, Min VisibilityMiles, Max Wind SpeedMPH, Mean Wind SpeedMPH, Max Gust SpeedMPH,PrecipitationIn, CloudCover, Events, WindDirDegrees
2012-1-1,65,51,36,56,41,27,92,64,36,30.27,30.10,30.02,10,9,1,21,7,31,0.07,5,Rain,268
2012-1-2,44,36,27,21,14,8,63,44,24,30.34,30.26,30.17,10,10,8,30,13,38,T,2,Snow,317
2012-1-3,36,29,22,17,10,6,74,52,29,30.52,30.43,30.35,10,10,10,21,8,26,T,3,Snow,333
2012-1-4,50,35,19,26,18,14,84,55,26,30.41,30.29,30.17,10,10,10,16,3,21,0.00,1,,189
2012-1-5,58,43,28,34,28,23,85,55,25,30.25,30.18,30.13,10,10,10,9,1,13,0.00,1,Fog,173
2012-1-6,65,47,28,43,33,25,92,60,28,30.18,30.09,30.02,10,10,10,14,2,18,0.00,2,,201
2012-1-7,62,53,44,56,50,42,100,87,74,30.13,30.05,30.00,10,8,2,10,2,13,0.11,6,Rain,189
2012-1-8,52,50,47,52,48,45,89,88,86,30.22,30.17,30.12,10,4,1,12,4,13,0.32,8,Rain,12
2012-1-9,57,52,47,55,50,45,100,93,86,30.19,30.13,30.08,9,3,0,6,1,7,0.13,7,Fog-Rain,298
2012-1-10,53,50,47,52,47,41,100,86,71,30.11,30.02,29.86,10,6,0,12,5,28,0.03,8,Fog-Rain,15
2012-1-11,55,51,47,52,47,43,93,82,71,29.82,29.61,29.48,10,3,1,24,8,28,1.20,8,Rain-Thunderstorm,340
2012-1-12,51,40,29,46,35,15,93,75,56,29.97,29.74,29.57,10,8,1,28,12,38,0.06,7,Rain-Snow,219
2012-1-13,34,30,26,21,17,13,81,65,49,30.23,30.12,29.98,10,10,8,20,8,28,T,5,Snow,244
2012-1-14,50,36,21,28,22,18,92,63,34,30.30,30.19,30.06,10,10,10,17,5,23,0.00,3,,205
2012-1-15,50,39,27,27,24,21,78,56,34,30.51,30.42,30.23,10,10,10,18,3,24,0.00,1,,354
2012-1-16,54,42,30,32,27,24,85,60,35,30.46,30.36,30.24,10,10,10,16,6,21,0.00,7,,175
2012-1-17,59,51,42,57,51,31,93,67,41,30.22,30.02,29.92,10,4,1,24,9,29,1.56,8,Rain-Thunderstorm,190
2012-1-18,42,36,29,33,25,23,79,65,50,30.26,30.18,30.14,10,10,10,21,7,24,0.00,5,,1
2012-1-19,52,40,27,37,28,23,92,62,32,30.18,30.11,30.02,10,10,9,10,2,13,0.02,6,,226
2012-1-20,49,46,42,46,42,37,93,82,71,30.08,30.01,29.94,10,6,0,7,1,8,0.15,8,Fog-Rain,346
2012-1-21,65,55,45,58,50,41,100,89,78,30.10,29.93,29.83,10,7,0,28,6,36,0.44,7,Fog-Rain-Thunderstorm,329
2012-1-22,56,50,43,50,44,40,100,92,83,30.15,30.10,30.04,10,5,1,16,5,25,T,8,,87
2012-1-23,63,56,48,53,48,41,93,74,55,30.07,29.96,29.88,10,7,1,17,8,25,1.40,7,Rain-Thunderstorm,181
2012-1-24,62,49,36,41,37,33,92,64,36,30.28,30.21,30.07,10,10,10,9,2,23,0.00,1,Fog,26
2012-1-25,66,51,35,46,39,33,92,67,42,30.28,30.18,30.07,10,10,10,12,3,17,0.00,5,,172
2012-1-26,64,58,51,61,57,46,100,81,62,30.06,29.79,29.60,10,4,1,22,5,28,1.61,8,Rain-Thunderstorm,193
2012-1-27,60,49,37,54,40,34,85,66,46,30.08,29.91,29.65,10,10,10,18,7,24,T,5,Rain,283
2012-1-28,55,44,33,40,27,12,92,56,20,30.35,30.21,30.08,10,10,9,21,6,25,0.00,2,Fog,332
2012-1-29,54,40,26,27,21,13,85,52,19,30.46,30.38,30.34,10,10,10,15,3,20,0.00,0,,204
2012-1-30,62,45,28,30,25,19,85,52,19,30.44,30.37,30.31,10,10,10,15,2,20,0.00,1,,171
2012-1-31,64,48,32,35,30,26,85,56,27,30.39,30.31,30.24,10,10,10,12,2,16,0.00,4,,174